sensor_id;sensor_type;location;lat;lon;timestamp;P1;durP1;ratioP1;P2;durP2;ratioP2
4634;SDS011;2330;48.158;11.816;2023-05-16T00:01:45;3.00;;;2.80;;
4634;SDS011;2330;48.158;11.816;2023-05-16T00:04:11;3.27;;;3.07;;
4634;SDS011;2330;48.158;11.816;2023-05-16T00:06:38;3.57;;;3.23;;
4634;SDS011;2330;48.158;11.816;2023-05-16T00:09:05;2.90;;;2.70;;
4634;SDS011;2330;48.158;11.816;2023-05-16T00:11:32;3.40;;;3.20;;
4634;SDS011;2330;48.158;11.816;2023-05-16T00:13:59;3.07;;;2.87;;
4634;SDS011;2330;48.158;11.816;2023-05-16T00:16:26;3.60;;;2.90;;
4634;SDS011;2330;48.158;11.816;2023-05-16T00:18:55;3.37;;;3.13;;
4634;SDS011;2330;48.158;11.816;2023-05-16T00:21:26;2.90;;;2.73;;
4634;SDS011;2330;48.158;11.816;2023-05-16T00:23:53;3.50;;;2.93;;
4634;SDS011;2330;48.158;11.816;2023-05-16T00:26:20;2.90;;;2.70;;
4634;SDS011;2330;48.158;11.816;2023-05-16T00:28:47;4.73;;;3.20;;
4634;SDS011;2330;48.158;11.816;2023-05-16T00:31:14;4.30;;;3.73;;
4634;SDS011;2330;48.158;11.816;2023-05-16T00:33:41;3.20;;;3.00;;
4634;SDS011;2330;48.158;11.816;2023-05-16T00:36:07;3.30;;;2.77;;
4634;SDS011;2330;48.158;11.816;2023-05-16T00:38:34;3.30;;;3.10;;
4634;SDS011;2330;48.158;11.816;2023-05-16T00:41:02;5.20;;;3.37;;
4634;SDS011;2330;48.158;11.816;2023-05-16T00:43:29;4.43;;;4.07;;
4634;SDS011;2330;48.158;11.816;2023-05-16T00:45:56;3.40;;;3.10;;
4634;SDS011;2330;48.158;11.816;2023-05-16T00:48:23;3.60;;;3.30;;
4634;SDS011;2330;48.158;11.816;2023-05-16T00:50:50;3.13;;;2.93;;
4634;SDS011;2330;48.158;11.816;2023-05-16T00:53:18;3.33;;;3.13;;
4634;SDS011;2330;48.158;11.816;2023-05-16T00:55:45;3.50;;;3.30;;
4634;SDS011;2330;48.158;11.816;2023-05-16T00:58:12;3.60;;;3.30;;
4634;SDS011;2330;48.158;11.816;2023-05-16T01:00:39;3.60;;;3.27;;
4634;SDS011;2330;48.158;11.816;2023-05-16T01:03:07;3.30;;;3.03;;
4634;SDS011;2330;48.158;11.816;2023-05-16T01:05:34;4.80;;;3.50;;
4634;SDS011;2330;48.158;11.816;2023-05-16T01:08:02;3.13;;;2.93;;
4634;SDS011;2330;48.158;11.816;2023-05-16T01:10:31;3.50;;;3.30;;
4634;SDS011;2330;48.158;11.816;2023-05-16T01:16:27;3.03;;;2.83;;
4634;SDS011;2330;48.158;11.816;2023-05-16T01:19:04;7.47;;;3.63;;
4634;SDS011;2330;48.158;11.816;2023-05-16T01:21:46;3.77;;;3.47;;
4634;SDS011;2330;48.158;11.816;2023-05-16T01:24:21;2.63;;;2.53;;
4634;SDS011;2330;48.158;11.816;2023-05-16T01:26:58;3.33;;;3.13;;
4634;SDS011;2330;48.158;11.816;2023-05-16T01:29:25;3.60;;;3.30;;
4634;SDS011;2330;48.158;11.816;2023-05-16T01:31:52;3.77;;;3.47;;
4634;SDS011;2330;48.158;11.816;2023-05-16T01:34:19;3.57;;;3.27;;
4634;SDS011;2330;48.158;11.816;2023-05-16T01:36:48;4.17;;;2.93;;
4634;SDS011;2330;48.158;11.816;2023-05-16T01:40:10;3.70;;;3.40;;
4634;SDS011;2330;48.158;11.816;2023-05-16T01:42:34;3.00;;;2.80;;
4634;SDS011;2330;48.158;11.816;2023-05-16T01:47:35;4.40;;;4.00;;
4634;SDS011;2330;48.158;11.816;2023-05-16T01:50:12;3.53;;;3.23;;
4634;SDS011;2330;48.158;11.816;2023-05-16T01:52:44;3.30;;;3.10;;
4634;SDS011;2330;48.158;11.816;2023-05-16T01:55:22;3.80;;;3.53;;
4634;SDS011;2330;48.158;11.816;2023-05-16T01:57:55;4.03;;;3.63;;
4634;SDS011;2330;48.158;11.816;2023-05-16T02:00:24;3.93;;;3.63;;
4634;SDS011;2330;48.158;11.816;2023-05-16T02:02:51;4.00;;;3.60;;
4634;SDS011;2330;48.158;11.816;2023-05-16T02:05:18;3.47;;;3.23;;
4634;SDS011;2330;48.158;11.816;2023-05-16T02:07:44;3.43;;;3.23;;
4634;SDS011;2330;48.158;11.816;2023-05-16T02:10:11;5.30;;;3.67;;
4634;SDS011;2330;48.158;11.816;2023-05-16T02:12:39;4.07;;;3.77;;
4634;SDS011;2330;48.158;11.816;2023-05-16T02:15:06;3.57;;;3.37;;
4634;SDS011;2330;48.158;11.816;2023-05-16T02:17:33;3.33;;;3.13;;
4634;SDS011;2330;48.158;11.816;2023-05-16T02:20:00;3.17;;;2.97;;
4634;SDS011;2330;48.158;11.816;2023-05-16T02:22:32;3.83;;;3.53;;
4634;SDS011;2330;48.158;11.816;2023-05-16T02:24:59;3.30;;;3.10;;
4634;SDS011;2330;48.158;11.816;2023-05-16T02:27:27;3.90;;;3.60;;
4634;SDS011;2330;48.158;11.816;2023-05-16T02:29:54;5.10;;;3.40;;
4634;SDS011;2330;48.158;11.816;2023-05-16T02:32:21;3.97;;;3.50;;
4634;SDS011;2330;48.158;11.816;2023-05-16T02:34:48;4.40;;;3.43;;
4634;SDS011;2330;48.158;11.816;2023-05-16T02:37:17;3.60;;;3.30;;
4634;SDS011;2330;48.158;11.816;2023-05-16T02:39:44;3.50;;;3.30;;
4634;SDS011;2330;48.158;11.816;2023-05-16T02:42:11;4.40;;;3.97;;
4634;SDS011;2330;48.158;11.816;2023-05-16T02:44:40;3.77;;;3.47;;
4634;SDS011;2330;48.158;11.816;2023-05-16T02:47:07;3.33;;;3.13;;
4634;SDS011;2330;48.158;11.816;2023-05-16T02:49:34;4.53;;;4.10;;
4634;SDS011;2330;48.158;11.816;2023-05-16T02:52:00;5.23;;;4.10;;
4634;SDS011;2330;48.158;11.816;2023-05-16T02:54:27;4.60;;;4.20;;
4634;SDS011;2330;48.158;11.816;2023-05-16T02:56:54;4.80;;;4.40;;
4634;SDS011;2330;48.158;11.816;2023-05-16T02:59:21;4.40;;;4.00;;
4634;SDS011;2330;48.158;11.816;2023-05-16T03:01:47;5.03;;;4.00;;
4634;SDS011;2330;48.158;11.816;2023-05-16T03:04:14;4.70;;;3.93;;
4634;SDS011;2330;48.158;11.816;2023-05-16T03:06:44;4.37;;;4.07;;
4634;SDS011;2330;48.158;11.816;2023-05-16T03:09:11;6.60;;;3.60;;
4634;SDS011;2330;48.158;11.816;2023-05-16T03:11:38;3.67;;;3.40;;
4634;SDS011;2330;48.158;11.816;2023-05-16T03:14:05;4.50;;;4.10;;
4634;SDS011;2330;48.158;11.816;2023-05-16T03:16:32;4.30;;;4.00;;
4634;SDS011;2330;48.158;11.816;2023-05-16T03:18:59;5.13;;;3.87;;
4634;SDS011;2330;48.158;11.816;2023-05-16T03:21:26;4.83;;;4.43;;
4634;SDS011;2330;48.158;11.816;2023-05-16T03:23:53;4.30;;;4.00;;
4634;SDS011;2330;48.158;11.816;2023-05-16T03:26:20;3.47;;;3.27;;
4634;SDS011;2330;48.158;11.816;2023-05-16T03:28:49;4.80;;;4.40;;
4634;SDS011;2330;48.158;11.816;2023-05-16T03:31:17;4.30;;;4.00;;
4634;SDS011;2330;48.158;11.816;2023-05-16T03:33:44;4.30;;;4.00;;
4634;SDS011;2330;48.158;11.816;2023-05-16T03:36:10;3.70;;;3.50;;
4634;SDS011;2330;48.158;11.816;2023-05-16T03:38:37;4.83;;;4.20;;
4634;SDS011;2330;48.158;11.816;2023-05-16T03:41:04;4.47;;;4.17;;
4634;SDS011;2330;48.158;11.816;2023-05-16T03:43:31;4.80;;;4.30;;
4634;SDS011;2330;48.158;11.816;2023-05-16T03:45:59;4.50;;;4.20;;
4634;SDS011;2330;48.158;11.816;2023-05-16T03:48:27;4.70;;;4.30;;
4634;SDS011;2330;48.158;11.816;2023-05-16T03:50:57;4.60;;;4.20;;
4634;SDS011;2330;48.158;11.816;2023-05-16T03:53:24;7.43;;;4.20;;
4634;SDS011;2330;48.158;11.816;2023-05-16T03:55:50;4.93;;;4.63;;
4634;SDS011;2330;48.158;11.816;2023-05-16T03:58:17;4.77;;;4.43;;
4634;SDS011;2330;48.158;11.816;2023-05-16T04:00:45;4.80;;;4.40;;
4634;SDS011;2330;48.158;11.816;2023-05-16T04:03:12;5.33;;;4.83;;
4634;SDS011;2330;48.158;11.816;2023-05-16T04:05:39;5.17;;;4.17;;
4634;SDS011;2330;48.158;11.816;2023-05-16T04:08:06;6.23;;;4.43;;
4634;SDS011;2330;48.158;11.816;2023-05-16T04:10:33;5.23;;;4.80;;
4634;SDS011;2330;48.158;11.816;2023-05-16T04:12:59;5.73;;;4.53;;
4634;SDS011;2330;48.158;11.816;2023-05-16T04:15:29;5.50;;;5.00;;
4634;SDS011;2330;48.158;11.816;2023-05-16T04:17:57;6.03;;;4.80;;
4634;SDS011;2330;48.158;11.816;2023-05-16T04:20:26;4.57;;;4.27;;
4634;SDS011;2330;48.158;11.816;2023-05-16T04:22:55;5.00;;;4.60;;
4634;SDS011;2330;48.158;11.816;2023-05-16T04:25:22;4.57;;;4.23;;
4634;SDS011;2330;48.158;11.816;2023-05-16T04:27:49;4.73;;;4.33;;
4634;SDS011;2330;48.158;11.816;2023-05-16T04:30:16;5.43;;;5.03;;
4634;SDS011;2330;48.158;11.816;2023-05-16T04:32:43;5.60;;;5.20;;
4634;SDS011;2330;48.158;11.816;2023-05-16T04:35:10;5.43;;;5.03;;
4634;SDS011;2330;48.158;11.816;2023-05-16T04:37:37;5.60;;;5.20;;
4634;SDS011;2330;48.158;11.816;2023-05-16T04:40:04;5.40;;;5.00;;
4634;SDS011;2330;48.158;11.816;2023-05-16T04:42:33;6.67;;;6.10;;
4634;SDS011;2330;48.158;11.816;2023-05-16T04:45:04;7.33;;;6.63;;
4634;SDS011;2330;48.158;11.816;2023-05-16T04:47:31;7.30;;;6.70;;
4634;SDS011;2330;48.158;11.816;2023-05-16T04:49:58;19.23;;;7.70;;
4634;SDS011;2330;48.158;11.816;2023-05-16T04:52:25;6.70;;;6.20;;
4634;SDS011;2330;48.158;11.816;2023-05-16T04:54:52;8.53;;;7.83;;
4634;SDS011;2330;48.158;11.816;2023-05-16T04:57:22;8.43;;;7.63;;
4634;SDS011;2330;48.158;11.816;2023-05-16T04:59:49;8.33;;;7.53;;
4634;SDS011;2330;48.158;11.816;2023-05-16T05:02:15;8.93;;;8.03;;
4634;SDS011;2330;48.158;11.816;2023-05-16T05:04:43;9.27;;;8.47;;
4634;SDS011;2330;48.158;11.816;2023-05-16T05:07:10;10.60;;;7.50;;
4634;SDS011;2330;48.158;11.816;2023-05-16T05:09:36;8.90;;;8.10;;
4634;SDS011;2330;48.158;11.816;2023-05-16T05:12:03;8.03;;;7.33;;
4634;SDS011;2330;48.158;11.816;2023-05-16T05:14:31;9.47;;;8.67;;
4634;SDS011;2330;48.158;11.816;2023-05-16T05:16:57;10.67;;;9.33;;
4634;SDS011;2330;48.158;11.816;2023-05-16T05:19:24;9.10;;;8.30;;
4634;SDS011;2330;48.158;11.816;2023-05-16T05:21:51;9.60;;;8.70;;
4634;SDS011;2330;48.158;11.816;2023-05-16T05:24:18;10.70;;;9.37;;
4634;SDS011;2330;48.158;11.816;2023-05-16T05:26:45;9.13;;;8.20;;
4634;SDS011;2330;48.158;11.816;2023-05-16T05:29:12;9.80;;;8.90;;
4634;SDS011;2330;48.158;11.816;2023-05-16T05:31:39;9.97;;;9.00;;
4634;SDS011;2330;48.158;11.816;2023-05-16T05:34:06;8.60;;;7.83;;
4634;SDS011;2330;48.158;11.816;2023-05-16T05:36:35;10.70;;;8.90;;
4634;SDS011;2330;48.158;11.816;2023-05-16T05:39:02;10.87;;;9.43;;
4634;SDS011;2330;48.158;11.816;2023-05-16T05:41:29;10.20;;;8.80;;
4634;SDS011;2330;48.158;11.816;2023-05-16T05:43:56;14.13;;;9.63;;
4634;SDS011;2330;48.158;11.816;2023-05-16T05:46:23;11.93;;;10.73;;
4634;SDS011;2330;48.158;11.816;2023-05-16T05:48:51;11.70;;;10.50;;
4634;SDS011;2330;48.158;11.816;2023-05-16T05:51:18;15.30;;;9.63;;
4634;SDS011;2330;48.158;11.816;2023-05-16T05:53:44;10.33;;;9.37;;
4634;SDS011;2330;48.158;11.816;2023-05-16T05:56:12;10.47;;;9.57;;
4634;SDS011;2330;48.158;11.816;2023-05-16T05:58:39;10.90;;;9.90;;
4634;SDS011;2330;48.158;11.816;2023-05-16T06:01:10;9.80;;;9.00;;
4634;SDS011;2330;48.158;11.816;2023-05-16T06:03:37;10.40;;;9.43;;
4634;SDS011;2330;48.158;11.816;2023-05-16T06:06:04;10.50;;;9.50;;
4634;SDS011;2330;48.158;11.816;2023-05-16T06:08:31;10.53;;;9.60;;
4634;SDS011;2330;48.158;11.816;2023-05-16T06:10:58;11.70;;;10.50;;
4634;SDS011;2330;48.158;11.816;2023-05-16T06:13:26;10.63;;;9.73;;
4634;SDS011;2330;48.158;11.816;2023-05-16T06:15:53;10.57;;;9.57;;
4634;SDS011;2330;48.158;11.816;2023-05-16T06:18:20;11.40;;;10.30;;
4634;SDS011;2330;48.158;11.816;2023-05-16T06:20:47;11.47;;;10.40;;
4634;SDS011;2330;48.158;11.816;2023-05-16T06:23:14;11.70;;;10.70;;
4634;SDS011;2330;48.158;11.816;2023-05-16T06:25:41;10.17;;;9.27;;
4634;SDS011;2330;48.158;11.816;2023-05-16T06:28:07;11.40;;;10.40;;
4634;SDS011;2330;48.158;11.816;2023-05-16T06:30:34;13.57;;;10.83;;
4634;SDS011;2330;48.158;11.816;2023-05-16T06:33:01;11.50;;;10.40;;
4634;SDS011;2330;48.158;11.816;2023-05-16T06:35:28;11.93;;;10.83;;
4634;SDS011;2330;48.158;11.816;2023-05-16T06:37:55;11.90;;;10.80;;
4634;SDS011;2330;48.158;11.816;2023-05-16T06:40:21;12.07;;;10.83;;
4634;SDS011;2330;48.158;11.816;2023-05-16T06:42:51;12.40;;;11.27;;
4634;SDS011;2330;48.158;11.816;2023-05-16T06:45:18;11.57;;;10.37;;
4634;SDS011;2330;48.158;11.816;2023-05-16T06:47:44;11.53;;;10.33;;
4634;SDS011;2330;48.158;11.816;2023-05-16T06:50:11;13.00;;;11.33;;
4634;SDS011;2330;48.158;11.816;2023-05-16T06:52:39;11.53;;;10.53;;
4634;SDS011;2330;48.158;11.816;2023-05-16T06:55:07;10.77;;;9.80;;
4634;SDS011;2330;48.158;11.816;2023-05-16T06:57:34;12.47;;;11.27;;
4634;SDS011;2330;48.158;11.816;2023-05-16T07:00:01;11.50;;;10.50;;
4634;SDS011;2330;48.158;11.816;2023-05-16T07:02:28;11.60;;;10.00;;
4634;SDS011;2330;48.158;11.816;2023-05-16T07:04:56;13.20;;;10.17;;
4634;SDS011;2330;48.158;11.816;2023-05-16T07:07:24;10.90;;;9.43;;
4634;SDS011;2330;48.158;11.816;2023-05-16T07:09:51;10.77;;;9.77;;
4634;SDS011;2330;48.158;11.816;2023-05-16T07:12:18;10.63;;;9.63;;
4634;SDS011;2330;48.158;11.816;2023-05-16T07:14:46;13.33;;;10.27;;
4634;SDS011;2330;48.158;11.816;2023-05-16T07:17:13;11.47;;;10.27;;
4634;SDS011;2330;48.158;11.816;2023-05-16T07:19:41;10.50;;;9.57;;
4634;SDS011;2330;48.158;11.816;2023-05-16T07:22:08;11.93;;;10.70;;
4634;SDS011;2330;48.158;11.816;2023-05-16T07:24:37;12.43;;;11.20;;
4634;SDS011;2330;48.158;11.816;2023-05-16T07:27:05;11.00;;;10.10;;
4634;SDS011;2330;48.158;11.816;2023-05-16T07:29:32;12.43;;;11.43;;
4634;SDS011;2330;48.158;11.816;2023-05-16T07:31:59;13.07;;;11.87;;
4634;SDS011;2330;48.158;11.816;2023-05-16T07:34:28;11.33;;;10.43;;
4634;SDS011;2330;48.158;11.816;2023-05-16T07:36:56;11.17;;;9.93;;
4634;SDS011;2330;48.158;11.816;2023-05-16T07:39:23;10.73;;;9.73;;
4634;SDS011;2330;48.158;11.816;2023-05-16T07:41:50;10.77;;;9.70;;
4634;SDS011;2330;48.158;11.816;2023-05-16T07:44:17;11.40;;;10.40;;
4634;SDS011;2330;48.158;11.816;2023-05-16T07:46:44;10.47;;;9.67;;
4634;SDS011;2330;48.158;11.816;2023-05-16T07:49:12;11.20;;;10.20;;
4634;SDS011;2330;48.158;11.816;2023-05-16T07:51:39;11.07;;;10.17;;
4634;SDS011;2330;48.158;11.816;2023-05-16T07:54:06;12.10;;;11.00;;
4634;SDS011;2330;48.158;11.816;2023-05-16T07:56:34;12.43;;;10.40;;
4634;SDS011;2330;48.158;11.816;2023-05-16T07:59:01;10.57;;;9.57;;
4634;SDS011;2330;48.158;11.816;2023-05-16T08:01:28;11.17;;;10.27;;
4634;SDS011;2330;48.158;11.816;2023-05-16T08:03:56;10.90;;;9.90;;
4634;SDS011;2330;48.158;11.816;2023-05-16T08:06:23;10.93;;;10.10;;
4634;SDS011;2330;48.158;11.816;2023-05-16T08:08:50;11.60;;;10.50;;
4634;SDS011;2330;48.158;11.816;2023-05-16T08:11:20;11.50;;;10.40;;
4634;SDS011;2330;48.158;11.816;2023-05-16T08:13:48;12.90;;;11.70;;
4634;SDS011;2330;48.158;11.816;2023-05-16T08:16:16;11.27;;;10.37;;
4634;SDS011;2330;48.158;11.816;2023-05-16T08:18:43;12.60;;;11.40;;
4634;SDS011;2330;48.158;11.816;2023-05-16T08:21:10;11.20;;;10.30;;
4634;SDS011;2330;48.158;11.816;2023-05-16T08:23:39;10.50;;;9.60;;
4634;SDS011;2330;48.158;11.816;2023-05-16T08:26:06;13.53;;;11.30;;
4634;SDS011;2330;48.158;11.816;2023-05-16T08:28:33;12.53;;;11.37;;
4634;SDS011;2330;48.158;11.816;2023-05-16T08:31:00;11.83;;;10.63;;
4634;SDS011;2330;48.158;11.816;2023-05-16T08:33:28;10.50;;;9.70;;
4634;SDS011;2330;48.158;11.816;2023-05-16T08:35:55;10.60;;;9.77;;
4634;SDS011;2330;48.158;11.816;2023-05-16T08:38:22;11.80;;;10.80;;
4634;SDS011;2330;48.158;11.816;2023-05-16T08:40:49;13.13;;;11.93;;
4634;SDS011;2330;48.158;11.816;2023-05-16T08:43:16;12.20;;;11.07;;
4634;SDS011;2330;48.158;11.816;2023-05-16T08:45:43;12.40;;;11.30;;
4634;SDS011;2330;48.158;11.816;2023-05-16T08:48:10;14.40;;;13.00;;
4634;SDS011;2330;48.158;11.816;2023-05-16T08:50:39;13.20;;;11.83;;
4634;SDS011;2330;48.158;11.816;2023-05-16T08:53:08;12.40;;;11.27;;
4634;SDS011;2330;48.158;11.816;2023-05-16T08:55:37;14.07;;;12.53;;
4634;SDS011;2330;48.158;11.816;2023-05-16T08:58:09;11.80;;;10.87;;
4634;SDS011;2330;48.158;11.816;2023-05-16T09:00:37;12.07;;;11.00;;
4634;SDS011;2330;48.158;11.816;2023-05-16T09:03:05;10.60;;;9.60;;
4634;SDS011;2330;48.158;11.816;2023-05-16T09:05:32;12.90;;;11.70;;
4634;SDS011;2330;48.158;11.816;2023-05-16T09:07:59;11.23;;;10.37;;
4634;SDS011;2330;48.158;11.816;2023-05-16T09:10:26;11.70;;;10.80;;
4634;SDS011;2330;48.158;11.816;2023-05-16T09:12:52;12.37;;;11.27;;
4634;SDS011;2330;48.158;11.816;2023-05-16T09:15:19;15.90;;;11.57;;
4634;SDS011;2330;48.158;11.816;2023-05-16T09:17:49;10.93;;;10.13;;
4634;SDS011;2330;48.158;11.816;2023-05-16T09:20:17;11.73;;;10.70;;
4634;SDS011;2330;48.158;11.816;2023-05-16T09:22:52;11.27;;;10.37;;
4634;SDS011;2330;48.158;11.816;2023-05-16T09:25:25;11.73;;;10.63;;
4634;SDS011;2330;48.158;11.816;2023-05-16T09:27:57;11.27;;;10.30;;
4634;SDS011;2330;48.158;11.816;2023-05-16T09:30:27;11.20;;;10.30;;
4634;SDS011;2330;48.158;11.816;2023-05-16T09:32:56;11.83;;;10.90;;
4634;SDS011;2330;48.158;11.816;2023-05-16T09:35:24;10.97;;;10.07;;
4634;SDS011;2330;48.158;11.816;2023-05-16T09:37:56;12.77;;;11.67;;
4634;SDS011;2330;48.158;11.816;2023-05-16T09:40:22;11.97;;;10.97;;
4634;SDS011;2330;48.158;11.816;2023-05-16T09:43:02;12.50;;;11.60;;
4634;SDS011;2330;48.158;11.816;2023-05-16T09:45:31;12.70;;;11.50;;
4634;SDS011;2330;48.158;11.816;2023-05-16T09:48:09;13.50;;;11.10;;
4634;SDS011;2330;48.158;11.816;2023-05-16T09:50:40;12.77;;;11.77;;
4634;SDS011;2330;48.158;11.816;2023-05-16T09:53:26;13.03;;;11.80;;
4634;SDS011;2330;48.158;11.816;2023-05-16T09:56:05;13.63;;;12.43;;
4634;SDS011;2330;48.158;11.816;2023-05-16T09:58:43;14.80;;;13.50;;
4634;SDS011;2330;48.158;11.816;2023-05-16T10:01:10;13.90;;;12.80;;
4634;SDS011;2330;48.158;11.816;2023-05-16T10:03:38;12.57;;;11.57;;
4634;SDS011;2330;48.158;11.816;2023-05-16T10:06:07;11.73;;;10.63;;
4634;SDS011;2330;48.158;11.816;2023-05-16T10:08:34;12.53;;;11.30;;
4634;SDS011;2330;48.158;11.816;2023-05-16T10:11:05;14.03;;;12.80;;
4634;SDS011;2330;48.158;11.816;2023-05-16T10:13:33;12.90;;;11.70;;
4634;SDS011;2330;48.158;11.816;2023-05-16T10:16:05;12.73;;;11.73;;
4634;SDS011;2330;48.158;11.816;2023-05-16T10:18:34;14.27;;;13.07;;
4634;SDS011;2330;48.158;11.816;2023-05-16T10:21:03;14.60;;;13.40;;
4634;SDS011;2330;48.158;11.816;2023-05-16T10:23:34;14.37;;;13.13;;
4634;SDS011;2330;48.158;11.816;2023-05-16T10:26:06;14.30;;;13.17;;
4634;SDS011;2330;48.158;11.816;2023-05-16T10:28:34;14.40;;;13.27;;
4634;SDS011;2330;48.158;11.816;2023-05-16T10:31:01;14.53;;;13.33;;
4634;SDS011;2330;48.158;11.816;2023-05-16T10:33:28;16.23;;;14.70;;
4634;SDS011;2330;48.158;11.816;2023-05-16T10:35:55;14.57;;;13.30;;
4634;SDS011;2330;48.158;11.816;2023-05-16T10:38:22;15.93;;;14.63;;
4634;SDS011;2330;48.158;11.816;2023-05-16T10:40:50;16.00;;;14.63;;
4634;SDS011;2330;48.158;11.816;2023-05-16T10:43:24;14.87;;;13.67;;
4634;SDS011;2330;48.158;11.816;2023-05-16T10:46:04;15.70;;;14.40;;
4634;SDS011;2330;48.158;11.816;2023-05-16T10:48:35;14.67;;;13.47;;
4634;SDS011;2330;48.158;11.816;2023-05-16T10:53:50;15.63;;;14.30;;
4634;SDS011;2330;48.158;11.816;2023-05-16T10:56:21;15.00;;;13.70;;
4634;SDS011;2330;48.158;11.816;2023-05-16T10:58:49;17.30;;;15.53;;
4634;SDS011;2330;48.158;11.816;2023-05-16T11:04:02;15.40;;;14.20;;
4634;SDS011;2330;48.158;11.816;2023-05-16T11:06:34;15.50;;;14.20;;
4634;SDS011;2330;48.158;11.816;2023-05-16T11:12:00;17.00;;;15.50;;
4634;SDS011;2330;48.158;11.816;2023-05-16T11:17:02;15.67;;;14.17;;
4634;SDS011;2330;48.158;11.816;2023-05-16T11:27:33;15.47;;;14.27;;
4634;SDS011;2330;48.158;11.816;2023-05-16T11:32:33;14.67;;;13.57;;
4634;SDS011;2330;48.158;11.816;2023-05-16T11:35:01;14.23;;;13.03;;
4634;SDS011;2330;48.158;11.816;2023-05-16T11:37:29;14.30;;;13.20;;
4634;SDS011;2330;48.158;11.816;2023-05-16T11:39:59;15.30;;;13.83;;
4634;SDS011;2330;48.158;11.816;2023-05-16T11:42:32;15.13;;;14.00;;
4634;SDS011;2330;48.158;11.816;2023-05-16T11:47:30;15.90;;;14.43;;
4634;SDS011;2330;48.158;11.816;2023-05-16T11:49:57;15.13;;;13.73;;
4634;SDS011;2330;48.158;11.816;2023-05-16T11:52:24;13.97;;;12.80;;
4634;SDS011;2330;48.158;11.816;2023-05-16T11:54:51;17.00;;;15.30;;
4634;SDS011;2330;48.158;11.816;2023-05-16T11:57:19;14.80;;;13.50;;
4634;SDS011;2330;48.158;11.816;2023-05-16T11:59:46;18.33;;;16.80;;
4634;SDS011;2330;48.158;11.816;2023-05-16T12:02:13;16.57;;;15.17;;
4634;SDS011;2330;48.158;11.816;2023-05-16T12:04:40;15.00;;;13.80;;
4634;SDS011;2330;48.158;11.816;2023-05-16T12:07:07;14.00;;;12.63;;
4634;SDS011;2330;48.158;11.816;2023-05-16T12:09:33;15.87;;;14.57;;
4634;SDS011;2330;48.158;11.816;2023-05-16T12:12:02;16.80;;;15.40;;
4634;SDS011;2330;48.158;11.816;2023-05-16T12:14:30;14.00;;;12.90;;
4634;SDS011;2330;48.158;11.816;2023-05-16T12:16:57;14.20;;;13.10;;
4634;SDS011;2330;48.158;11.816;2023-05-16T12:19:24;14.47;;;13.17;;
4634;SDS011;2330;48.158;11.816;2023-05-16T12:21:52;14.73;;;13.47;;
4634;SDS011;2330;48.158;11.816;2023-05-16T12:24:19;15.40;;;14.00;;
4634;SDS011;2330;48.158;11.816;2023-05-16T12:26:47;14.70;;;13.50;;
4634;SDS011;2330;48.158;11.816;2023-05-16T12:29:14;15.07;;;13.87;;
4634;SDS011;2330;48.158;11.816;2023-05-16T12:31:41;14.13;;;12.83;;
4634;SDS011;2330;48.158;11.816;2023-05-16T12:34:17;14.70;;;13.50;;
4634;SDS011;2330;48.158;11.816;2023-05-16T12:36:49;15.90;;;14.50;;
4634;SDS011;2330;48.158;11.816;2023-05-16T12:39:18;15.33;;;13.97;;
4634;SDS011;2330;48.158;11.816;2023-05-16T12:41:45;16.93;;;15.53;;
4634;SDS011;2330;48.158;11.816;2023-05-16T12:44:13;15.47;;;14.20;;
4634;SDS011;2330;48.158;11.816;2023-05-16T12:46:46;15.30;;;14.00;;
4634;SDS011;2330;48.158;11.816;2023-05-16T12:49:20;16.53;;;15.10;;
4634;SDS011;2330;48.158;11.816;2023-05-16T12:51:50;15.10;;;13.60;;
4634;SDS011;2330;48.158;11.816;2023-05-16T12:54:19;16.03;;;14.63;;
4634;SDS011;2330;48.158;11.816;2023-05-16T12:56:48;16.43;;;13.50;;
4634;SDS011;2330;48.158;11.816;2023-05-16T12:59:15;15.40;;;14.00;;
4634;SDS011;2330;48.158;11.816;2023-05-16T13:01:42;14.10;;;12.90;;
4634;SDS011;2330;48.158;11.816;2023-05-16T13:04:11;14.90;;;13.60;;
4634;SDS011;2330;48.158;11.816;2023-05-16T13:06:42;14.73;;;13.53;;
4634;SDS011;2330;48.158;11.816;2023-05-16T13:09:24;13.87;;;12.77;;
4634;SDS011;2330;48.158;11.816;2023-05-16T13:11:56;12.93;;;11.80;;
4634;SDS011;2330;48.158;11.816;2023-05-16T13:14:23;14.10;;;12.87;;
4634;SDS011;2330;48.158;11.816;2023-05-16T13:16:51;13.67;;;12.57;;
4634;SDS011;2330;48.158;11.816;2023-05-16T13:19:18;16.30;;;14.70;;
4634;SDS011;2330;48.158;11.816;2023-05-16T13:21:45;14.53;;;13.00;;
4634;SDS011;2330;48.158;11.816;2023-05-16T13:24:12;14.20;;;12.90;;
4634;SDS011;2330;48.158;11.816;2023-05-16T13:26:38;15.07;;;13.87;;
4634;SDS011;2330;48.158;11.816;2023-05-16T13:29:06;14.00;;;12.83;;
4634;SDS011;2330;48.158;11.816;2023-05-16T13:31:36;12.00;;;10.97;;
4634;SDS011;2330;48.158;11.816;2023-05-16T13:34:04;12.87;;;11.87;;
4634;SDS011;2330;48.158;11.816;2023-05-16T13:36:31;13.23;;;12.13;;
4634;SDS011;2330;48.158;11.816;2023-05-16T13:39:17;13.60;;;12.50;;
4634;SDS011;2330;48.158;11.816;2023-05-16T13:41:44;14.83;;;13.63;;
4634;SDS011;2330;48.158;11.816;2023-05-16T13:44:14;10.20;;;8.03;;
4634;SDS011;2330;48.158;11.816;2023-05-16T13:46:41;9.20;;;7.60;;
4634;SDS011;2330;48.158;11.816;2023-05-16T13:49:08;7.10;;;6.00;;
4634;SDS011;2330;48.158;11.816;2023-05-16T13:51:35;6.70;;;6.10;;
4634;SDS011;2330;48.158;11.816;2023-05-16T13:54:02;6.90;;;6.33;;
4634;SDS011;2330;48.158;11.816;2023-05-16T13:56:29;7.93;;;7.00;;
4634;SDS011;2330;48.158;11.816;2023-05-16T13:58:55;10.23;;;7.53;;
4634;SDS011;2330;48.158;11.816;2023-05-16T14:01:29;8.20;;;7.60;;
4634;SDS011;2330;48.158;11.816;2023-05-16T14:03:56;7.43;;;6.73;;
4634;SDS011;2330;48.158;11.816;2023-05-16T14:06:23;8.10;;;7.50;;
4634;SDS011;2330;48.158;11.816;2023-05-16T14:08:50;8.43;;;7.40;;
4634;SDS011;2330;48.158;11.816;2023-05-16T14:11:17;7.77;;;7.17;;
4634;SDS011;2330;48.158;11.816;2023-05-16T14:13:45;8.60;;;7.20;;
4634;SDS011;2330;48.158;11.816;2023-05-16T14:16:12;8.13;;;7.53;;
4634;SDS011;2330;48.158;11.816;2023-05-16T14:18:39;7.57;;;6.90;;
4634;SDS011;2330;48.158;11.816;2023-05-16T14:21:06;8.13;;;7.30;;
4634;SDS011;2330;48.158;11.816;2023-05-16T14:23:33;7.70;;;6.97;;
4634;SDS011;2330;48.158;11.816;2023-05-16T14:26:00;7.93;;;7.33;;
4634;SDS011;2330;48.158;11.816;2023-05-16T14:28:27;7.40;;;6.60;;
4634;SDS011;2330;48.158;11.816;2023-05-16T14:30:54;7.93;;;7.13;;
4634;SDS011;2330;48.158;11.816;2023-05-16T14:33:21;7.33;;;6.50;;
4634;SDS011;2330;48.158;11.816;2023-05-16T14:35:48;6.00;;;5.47;;
4634;SDS011;2330;48.158;11.816;2023-05-16T14:38:15;6.97;;;6.37;;
4634;SDS011;2330;48.158;11.816;2023-05-16T14:40:42;9.37;;;7.50;;
4634;SDS011;2330;48.158;11.816;2023-05-16T14:43:12;6.10;;;5.70;;
4634;SDS011;2330;48.158;11.816;2023-05-16T14:45:42;6.50;;;6.00;;
4634;SDS011;2330;48.158;11.816;2023-05-16T14:48:09;6.37;;;5.87;;
4634;SDS011;2330;48.158;11.816;2023-05-16T14:50:36;7.90;;;7.20;;
4634;SDS011;2330;48.158;11.816;2023-05-16T14:53:03;6.67;;;6.17;;
4634;SDS011;2330;48.158;11.816;2023-05-16T14:55:29;6.27;;;5.77;;
4634;SDS011;2330;48.158;11.816;2023-05-16T14:57:56;6.40;;;5.80;;
4634;SDS011;2330;48.158;11.816;2023-05-16T15:00:25;7.67;;;7.07;;
4634;SDS011;2330;48.158;11.816;2023-05-16T15:02:53;6.90;;;6.40;;
4634;SDS011;2330;48.158;11.816;2023-05-16T15:05:19;6.73;;;6.23;;
4634;SDS011;2330;48.158;11.816;2023-05-16T15:07:46;9.80;;;6.60;;
4634;SDS011;2330;48.158;11.816;2023-05-16T15:10:13;7.73;;;7.13;;
4634;SDS011;2330;48.158;11.816;2023-05-16T15:12:40;8.10;;;7.50;;
4634;SDS011;2330;48.158;11.816;2023-05-16T15:15:09;7.20;;;6.60;;
4634;SDS011;2330;48.158;11.816;2023-05-16T15:17:40;7.07;;;6.37;;
4634;SDS011;2330;48.158;11.816;2023-05-16T15:20:07;11.97;;;7.40;;
4634;SDS011;2330;48.158;11.816;2023-05-16T15:22:35;12.30;;;8.07;;
4634;SDS011;2330;48.158;11.816;2023-05-16T15:25:04;8.70;;;8.00;;